createdAt,value
2019-03-25T00:04:11.957Z,101743.28
2019-03-25T00:10:18.687Z,101731.77
2019-03-25T00:16:25.639Z,101730.81
2019-03-25T00:22:32.335Z,101723.48
2019-03-25T00:28:38.921Z,101708.37
2019-03-25T00:34:45.492Z,101703.70
2019-03-25T00:40:53.154Z,101692.48
2019-03-25T00:46:59.831Z,101686.54
2019-03-25T00:53:06.650Z,101673.49
2019-03-25T00:59:13.346Z,101668.70
2019-03-25T01:05:20.417Z,101651.73
2019-03-25T01:11:27.594Z,101639.45
2019-03-25T01:17:34.324Z,101635.50
2019-03-25T01:23:41.063Z,101636.20
2019-03-25T01:29:47.744Z,101619.47
2019-03-25T01:35:54.415Z,101610.16
2019-03-25T01:42:01.404Z,101591.00
2019-03-25T01:48:07.986Z,101582.48
2019-03-25T01:54:14.852Z,101567.25
2019-03-25T02:00:21.601Z,101568.67
2019-03-25T02:06:28.170Z,101569.61
2019-03-25T02:12:35.118Z,101548.31
2019-03-25T02:18:41.678Z,101546.13
2019-03-25T02:24:48.223Z,101529.73
2019-03-25T02:30:55.283Z,101528.53
2019-03-25T02:37:01.943Z,101514.98
2019-03-25T02:43:10.391Z,101512.51
2019-03-25T02:49:17.130Z,101502.03
2019-03-25T02:55:23.692Z,101489.45
2019-03-25T03:01:30.421Z,101493.00
2019-03-25T03:07:37.178Z,101487.89
2019-03-25T03:13:43.786Z,101457.80
2019-03-25T03:19:50.493Z,101443.37
2019-03-25T03:25:58.291Z,101462.95
2019-03-25T03:32:05.137Z,101456.48
2019-03-25T03:38:11.698Z,101452.59
2019-03-25T03:44:18.289Z,101456.23
2019-03-25T03:50:29.323Z,101452.69
2019-03-25T03:56:35.798Z,101466.97
2019-03-25T04:02:42.433Z,101458.09
2019-03-25T04:08:49.057Z,101456.30
2019-03-25T04:14:55.602Z,101442.67
2019-03-25T04:21:02.195Z,101458.01
2019-03-25T04:27:08.765Z,101462.81
2019-03-25T04:33:15.337Z,101462.84
2019-03-25T04:39:21.876Z,101464.55
2019-03-25T04:45:28.433Z,101464.64
2019-03-25T04:51:35.083Z,101468.14
2019-03-25T04:57:41.756Z,101462.84
2019-03-25T05:03:48.605Z,101464.21
2019-03-25T05:09:55.217Z,101468.09
2019-03-25T05:16:01.870Z,101465.91
2019-03-25T05:22:10.934Z,101465.13
2019-03-25T05:28:17.016Z,101471.11
2019-03-25T05:34:23.855Z,101469.56
2019-03-25T05:40:30.406Z,101474.70
2019-03-25T05:46:37.159Z,101477.77
2019-03-25T05:52:43.913Z,101480.00
2019-03-25T05:58:50.476Z,101482.42
2019-03-25T06:04:57.171Z,101483.05
2019-03-25T06:11:03.764Z,101485.90
2019-03-25T06:17:10.671Z,101490.95
2019-03-25T06:23:17.265Z,101499.61
2019-03-25T06:29:23.904Z,101493.88
2019-03-25T06:35:30.589Z,101499.41
2019-03-25T06:41:37.186Z,101498.01
2019-03-25T06:47:43.783Z,101506.34
2019-03-25T06:53:50.395Z,101499.41
2019-03-25T06:59:57.220Z,101493.34
2019-03-25T07:06:03.828Z,101506.16
2019-03-25T07:12:10.549Z,101506.14
2019-03-25T07:18:17.323Z,101505.28
2019-03-25T07:24:24.842Z,101506.34
2019-03-25T07:30:31.598Z,101494.91
2019-03-25T07:36:38.337Z,101482.93
2019-03-25T07:42:45.237Z,101484.41
2019-03-25T07:48:51.880Z,101498.98
2019-03-25T07:54:58.484Z,101492.67
2019-03-25T08:01:05.375Z,101494.95
2019-03-25T08:07:12.051Z,101509.67
2019-03-25T08:13:18.704Z,101522.40
2019-03-25T08:19:25.542Z,101523.23
2019-03-25T08:25:32.155Z,101512.02
2019-03-25T08:31:38.993Z,101515.96
2019-03-25T08:37:45.745Z,101543.17
2019-03-25T08:43:52.366Z,101536.48
2019-03-25T08:49:59.004Z,101536.41
2019-03-25T08:56:05.857Z,101534.90
2019-03-25T09:02:12.467Z,101546.66
2019-03-25T09:08:19.086Z,101549.77
2019-03-25T09:14:25.907Z,101550.61
2019-03-25T09:20:32.584Z,101578.65
2019-03-25T09:26:39.390Z,101609.48
2019-03-25T09:32:46.009Z,101578.00
2019-03-25T09:38:52.966Z,101600.03
2019-03-25T09:44:59.546Z,101599.17
2019-03-25T09:51:06.717Z,101610.05
2019-03-25T09:57:13.376Z,101602.08
2019-03-25T10:03:20.034Z,101594.94
2019-03-25T10:09:26.652Z,101606.84
2019-03-25T10:15:33.820Z,101598.50
2019-03-25T10:21:40.561Z,101599.75
2019-03-25T10:27:47.505Z,101604.16
2019-03-25T10:33:54.103Z,101613.20
2019-03-25T10:40:00.821Z,101619.70
2019-03-25T10:46:07.620Z,101612.27
2019-03-25T10:52:14.278Z,101630.11
2019-03-25T10:58:20.978Z,101635.28
2019-03-25T11:04:27.923Z,101676.03
2019-03-25T11:10:34.727Z,101689.42
2019-03-25T11:16:41.416Z,101678.01
2019-03-25T11:22:48.065Z,101669.42
2019-03-25T11:28:54.964Z,101672.48
2019-03-25T11:35:01.636Z,101664.22
2019-03-25T11:41:08.668Z,101652.17
2019-03-25T11:47:15.786Z,101659.06
2019-03-25T11:53:22.431Z,101660.14
2019-03-25T11:59:29.227Z,101664.31
2019-03-25T12:05:35.955Z,101661.86
2019-03-25T12:11:42.732Z,101652.45
2019-03-25T12:17:49.402Z,101669.64
2019-03-25T12:23:55.989Z,101714.45
2019-03-25T12:30:02.621Z,101711.73
2019-03-25T12:36:09.706Z,101693.61
2019-03-25T12:42:16.565Z,101687.45
2019-03-25T12:48:25.263Z,101671.13
2019-03-25T12:54:32.050Z,101651.67
2019-03-25T13:00:43.489Z,101699.19
2019-03-25T13:06:50.585Z,101678.77
2019-03-25T13:12:58.605Z,101675.00
2019-03-25T13:19:05.373Z,101671.73
2019-03-25T13:25:12.167Z,101646.41
2019-03-25T13:31:18.852Z,101640.95
2019-03-25T13:37:25.503Z,101662.22
2019-03-25T13:43:32.197Z,101689.59
2019-03-25T13:49:38.983Z,101690.03
2019-03-25T13:55:45.685Z,101694.45
2019-03-25T14:01:52.461Z,101691.99
2019-03-25T14:07:59.127Z,101699.54
2019-03-25T14:14:05.719Z,101702.03
2019-03-25T14:20:12.608Z,101697.18
2019-03-25T14:26:19.210Z,101695.54
2019-03-25T14:32:25.964Z,101680.66
2019-03-25T14:38:32.724Z,101666.45
2019-03-25T14:44:39.456Z,101701.30
2019-03-25T14:50:46.130Z,101686.66
2019-03-25T14:56:52.887Z,101673.95
2019-03-25T15:02:59.601Z,101693.41
2019-03-25T15:09:08.769Z,101683.41
2019-03-25T15:15:15.788Z,101697.41
2019-03-25T15:21:22.678Z,101724.98
2019-03-25T15:27:29.355Z,101742.22
2019-03-25T15:33:35.967Z,101733.49
2019-03-25T15:39:46.878Z,101739.06
2019-03-25T15:45:52.160Z,101744.63
2019-03-25T15:51:59.053Z,101752.65
2019-03-25T15:58:05.656Z,101768.02
2019-03-25T16:04:12.273Z,101770.17
2019-03-25T16:10:19.617Z,101784.46
2019-03-25T16:16:26.754Z,101779.91
2019-03-25T16:22:33.441Z,101795.69
2019-03-25T16:28:40.111Z,101809.69
2019-03-25T16:34:46.696Z,101817.47
2019-03-25T16:40:53.295Z,101850.36
2019-03-25T16:47:00.137Z,101839.80
2019-03-25T16:53:06.757Z,101870.17
2019-03-25T16:59:13.679Z,101881.18
2019-03-25T17:05:20.420Z,101909.09
2019-03-25T17:11:27.116Z,101922.78
2019-03-25T17:17:34.224Z,101922.61
2019-03-25T17:23:40.905Z,101930.50
2019-03-25T17:29:47.501Z,101948.47
2019-03-25T17:35:54.177Z,101987.64
2019-03-25T17:42:01.200Z,101970.40
2019-03-25T17:48:08.062Z,101984.67
2019-03-25T17:54:15.754Z,102000.39
2019-03-25T18:01:00.090Z,102013.20
2019-03-25T18:07:07.623Z,102028.44
2019-03-25T18:13:22.410Z,102043.51
2019-03-25T18:19:22.683Z,102056.61
2019-03-25T18:25:29.616Z,102070.95
2019-03-25T18:31:43.172Z,102074.72
2019-03-25T18:37:44.757Z,102076.87
2019-03-25T18:43:51.679Z,102092.64
2019-03-25T18:49:58.525Z,102097.77
2019-03-25T18:56:05.227Z,102110.97
2019-03-25T19:02:11.881Z,102122.47
2019-03-25T19:08:18.501Z,102129.04
2019-03-25T19:14:25.263Z,102134.16
2019-03-25T19:20:32.005Z,102133.69
2019-03-25T19:26:38.774Z,102149.78
2019-03-25T19:32:51.052Z,102166.73
2019-03-25T19:38:58.020Z,102167.12
2019-03-25T19:45:05.257Z,102188.63
2019-03-25T19:51:12.286Z,102188.63
2019-03-25T19:57:19.389Z,102198.50
2019-03-25T20:03:26.152Z,102221.23
2019-03-25T20:09:33.990Z,102222.77
2019-03-25T20:15:46.606Z,102218.02
2019-03-25T20:21:49.229Z,102235.89
2019-03-25T20:27:58.810Z,102238.34
2019-03-25T20:34:11.158Z,102249.41
2019-03-25T20:40:15.337Z,102248.25
2019-03-25T20:46:22.082Z,102259.95
2019-03-25T20:52:29.136Z,102271.30
2019-03-25T20:58:36.387Z,102283.63
2019-03-25T21:04:43.026Z,102284.77
2019-03-25T21:10:49.760Z,102296.03
2019-03-25T21:16:56.442Z,102306.83
2019-03-25T21:23:03.247Z,102317.63
2019-03-25T21:29:10.328Z,102322.94
2019-03-25T21:35:17.401Z,102343.73
2019-03-25T21:41:24.065Z,102350.48
2019-03-25T21:47:30.774Z,102362.45
2019-03-25T21:53:37.439Z,102370.84
2019-03-25T21:59:44.068Z,102389.00
2019-03-25T22:05:50.888Z,102393.27
2019-03-25T22:11:57.567Z,102389.54
2019-03-25T22:18:04.221Z,102391.88
2019-03-25T22:24:11.410Z,102395.63
2019-03-25T22:30:18.186Z,102417.06
2019-03-25T22:36:24.791Z,102423.27
2019-03-25T22:42:31.386Z,102436.73
2019-03-25T22:48:38.045Z,102429.23
2019-03-25T22:54:44.691Z,102441.82
2019-03-25T23:00:51.413Z,102449.27
2019-03-25T23:06:58.023Z,102457.45
2019-03-25T23:13:04.574Z,102454.83
2019-03-25T23:19:11.284Z,102464.80
2019-03-25T23:25:18.185Z,102468.31
2019-03-25T23:31:25.092Z,102466.90
2019-03-25T23:37:31.706Z,102465.95
2019-03-25T23:43:38.313Z,102474.24
2019-03-25T23:49:45.010Z,102478.47
2019-03-25T23:55:51.611Z,102487.88
